HAZ3701 ZGGG-ZJSY
Flight info
| Callsign | HAZ3701 |
|---|---|
| Flight time | N/A |
| Altitude | 25600 |
| Route | VIBOS9 VIBOS R473 ZUH R200 BIGRO G221 WL |
| Aircraft | A320/M-SDE3FGHIRWY/LB1 |
Departure
| Time | N/A |
|---|---|
| Airport | Guangzhou Baiyun International Airport (ZGGG) |
Arrival
| Time | 2026-05-05 17:49 |
|---|---|
| Airport | Sanya Phoenix International Airport (ZJSY) |
| Time | Latitude | Longitude | Altitude | Speed | Heading |
|---|---|---|---|---|---|
| 2026-05-05 16:57 | 22.10555 | 113.18680 | 25554 ft | 438 kts | 268° |
| 2026-05-05 16:57 | 22.10061 | 113.15430 | 25555 ft | 442 kts | 256° |
| 2026-05-05 16:58 | 22.08893 | 113.12347 | 25559 ft | 446 kts | 248° |
| 2026-05-05 16:58 | 22.07579 | 113.09315 | 25565 ft | 447 kts | 249° |
| 2026-05-05 16:58 | 22.06303 | 113.06257 | 25565 ft | 447 kts | 249° |
| 2026-05-05 16:58 | 22.05048 | 113.03192 | 25566 ft | 447 kts | 249° |
| 2026-05-05 16:59 | 22.03815 | 113.00166 | 25549 ft | 448 kts | 249° |
| 2026-05-05 16:59 | 22.02580 | 112.97086 | 25552 ft | 448 kts | 250° |
| 2026-05-05 16:59 | 22.01375 | 112.93992 | 25558 ft | 448 kts | 250° |
| 2026-05-05 16:59 | 22.00184 | 112.90891 | 25561 ft | 448 kts | 250° |
| 2026-05-05 17:00 | 21.98996 | 112.87792 | 25562 ft | 448 kts | 250° |
| 2026-05-05 17:00 | 21.97801 | 112.84686 | 25569 ft | 448 kts | 250° |
| 2026-05-05 17:00 | 21.96601 | 112.81585 | 25571 ft | 448 kts | 250° |
| 2026-05-05 17:00 | 21.95383 | 112.78497 | 25565 ft | 449 kts | 250° |
| 2026-05-05 17:01 | 21.94145 | 112.75413 | 25566 ft | 449 kts | 249° |
| 2026-05-05 17:01 | 21.92893 | 112.72331 | 25564 ft | 449 kts | 249° |
| 2026-05-05 17:01 | 21.91636 | 112.69251 | 25566 ft | 449 kts | 249° |
| 2026-05-05 17:01 | 21.90382 | 112.66172 | 25567 ft | 450 kts | 249° |
| 2026-05-05 17:02 | 21.89130 | 112.63087 | 25567 ft | 450 kts | 249° |
| 2026-05-05 17:02 | 21.87880 | 112.60000 | 25566 ft | 450 kts | 249° |
| 2026-05-05 17:02 | 21.86648 | 112.56956 | 25565 ft | 450 kts | 249° |
| 2026-05-05 17:02 | 21.85400 | 112.53872 | 25565 ft | 450 kts | 250° |
| 2026-05-05 17:03 | 21.84160 | 112.50780 | 25562 ft | 450 kts | 250° |
| 2026-05-05 17:03 | 21.82933 | 112.47687 | 25562 ft | 449 kts | 250° |
| 2026-05-05 17:03 | 21.81710 | 112.44588 | 25549 ft | 449 kts | 250° |
| 2026-05-05 17:03 | 21.80490 | 112.41494 | 25552 ft | 450 kts | 250° |
| 2026-05-05 17:04 | 21.79264 | 112.38393 | 25554 ft | 450 kts | 250° |
| 2026-05-05 17:04 | 21.78037 | 112.35297 | 25556 ft | 450 kts | 250° |
| 2026-05-05 17:04 | 21.76807 | 112.32197 | 25554 ft | 451 kts | 250° |
| 2026-05-05 17:04 | 21.75576 | 112.29099 | 25558 ft | 451 kts | 250° |
| 2026-05-05 17:05 | 21.74339 | 112.25994 | 25553 ft | 451 kts | 250° |
| 2026-05-05 17:05 | 21.73104 | 112.22897 | 25552 ft | 451 kts | 250° |
| 2026-05-05 17:05 | 21.71866 | 112.19796 | 25554 ft | 451 kts | 250° |
| 2026-05-05 17:05 | 21.70630 | 112.16699 | 25561 ft | 451 kts | 250° |
| 2026-05-05 17:06 | 21.69410 | 112.13644 | 25561 ft | 451 kts | 250° |
| 2026-05-05 17:06 | 21.68173 | 112.10550 | 25557 ft | 451 kts | 249° |
| 2026-05-05 17:06 | 21.66933 | 112.07451 | 25558 ft | 451 kts | 249° |
| 2026-05-05 17:06 | 21.65699 | 112.04357 | 25554 ft | 451 kts | 250° |
| 2026-05-05 17:07 | 21.64463 | 112.01262 | 25554 ft | 451 kts | 249° |
| 2026-05-05 17:07 | 21.63222 | 111.98165 | 25559 ft | 451 kts | 249° |
| 2026-05-05 17:07 | 21.61980 | 111.95069 | 25553 ft | 451 kts | 249° |
| 2026-05-05 17:07 | 21.60737 | 111.91980 | 25556 ft | 451 kts | 249° |
| 2026-05-05 17:08 | 21.59492 | 111.88886 | 25538 ft | 451 kts | 249° |
| 2026-05-05 17:08 | 21.58252 | 111.85791 | 25541 ft | 450 kts | 249° |
| 2026-05-05 17:08 | 21.56821 | 111.82787 | 25540 ft | 454 kts | 241° |
| 2026-05-05 17:08 | 21.54971 | 111.80080 | 25542 ft | 458 kts | 233° |
| 2026-05-05 17:09 | 21.52895 | 111.77486 | 25549 ft | 459 kts | 233° |
| 2026-05-05 17:09 | 21.50814 | 111.74886 | 25548 ft | 459 kts | 233° |
| 2026-05-05 17:09 | 21.48737 | 111.72283 | 25551 ft | 459 kts | 233° |
| 2026-05-05 17:09 | 21.46664 | 111.69677 | 25556 ft | 459 kts | 233° |
| 2026-05-05 17:10 | 21.44596 | 111.67071 | 25553 ft | 459 kts | 233° |
| 2026-05-05 17:10 | 21.42530 | 111.64463 | 25554 ft | 459 kts | 233° |
| 2026-05-05 17:10 | 21.40459 | 111.61853 | 25559 ft | 459 kts | 233° |
| 2026-05-05 17:10 | 21.38389 | 111.59246 | 25544 ft | 459 kts | 233° |
| 2026-05-05 17:11 | 21.36313 | 111.56635 | 25555 ft | 459 kts | 233° |
| 2026-05-05 17:11 | 21.34266 | 111.54067 | 25555 ft | 460 kts | 233° |
| 2026-05-05 17:11 | 21.32185 | 111.51466 | 25546 ft | 460 kts | 232° |
| 2026-05-05 17:11 | 21.30101 | 111.48862 | 25548 ft | 460 kts | 232° |
| 2026-05-05 17:12 | 21.28022 | 111.46261 | 25547 ft | 460 kts | 232° |
| 2026-05-05 17:12 | 21.25942 | 111.43654 | 25551 ft | 460 kts | 232° |
| 2026-05-05 17:12 | 21.23862 | 111.41048 | 25553 ft | 460 kts | 232° |
| 2026-05-05 17:12 | 21.21785 | 111.38445 | 25554 ft | 460 kts | 233° |
| 2026-05-05 17:13 | 21.19705 | 111.35839 | 25556 ft | 460 kts | 232° |
| 2026-05-05 17:13 | 21.17628 | 111.33239 | 25557 ft | 460 kts | 232° |
| 2026-05-05 17:13 | 21.15544 | 111.30640 | 25557 ft | 460 kts | 232° |
| 2026-05-05 17:13 | 21.13458 | 111.28041 | 25556 ft | 460 kts | 232° |
| 2026-05-05 17:14 | 21.11404 | 111.25480 | 25553 ft | 459 kts | 232° |
| 2026-05-05 17:14 | 21.09321 | 111.22883 | 25550 ft | 459 kts | 232° |
| 2026-05-05 17:14 | 21.07240 | 111.20291 | 25536 ft | 459 kts | 232° |
| 2026-05-05 17:14 | 21.05156 | 111.17694 | 25540 ft | 459 kts | 232° |
| 2026-05-05 17:15 | 21.03074 | 111.15100 | 25544 ft | 459 kts | 232° |
| 2026-05-05 17:15 | 21.00993 | 111.12508 | 25546 ft | 459 kts | 232° |
| 2026-05-05 17:15 | 20.98908 | 111.09914 | 25546 ft | 460 kts | 232° |
| 2026-05-05 17:15 | 20.96824 | 111.07322 | 25545 ft | 459 kts | 232° |
| 2026-05-05 17:16 | 20.94742 | 111.04732 | 25545 ft | 459 kts | 232° |
| 2026-05-05 17:16 | 20.92661 | 111.02134 | 25543 ft | 459 kts | 232° |
| 2026-05-05 17:16 | 20.90617 | 110.99571 | 25542 ft | 459 kts | 232° |
| 2026-05-05 17:16 | 20.88549 | 110.96972 | 25541 ft | 459 kts | 232° |
| 2026-05-05 17:17 | 20.86483 | 110.94378 | 25543 ft | 459 kts | 232° |
| 2026-05-05 17:17 | 20.84408 | 110.91777 | 25538 ft | 459 kts | 232° |
| 2026-05-05 17:17 | 20.82338 | 110.89188 | 25536 ft | 459 kts | 232° |
| 2026-05-05 17:17 | 20.80265 | 110.86594 | 25533 ft | 458 kts | 232° |
| 2026-05-05 17:18 | 20.78196 | 110.84009 | 25535 ft | 458 kts | 232° |
| 2026-05-05 17:18 | 20.76122 | 110.81415 | 25533 ft | 458 kts | 232° |
| 2026-05-05 17:18 | 20.74056 | 110.78829 | 25530 ft | 458 kts | 232° |
| 2026-05-05 17:18 | 20.71986 | 110.76236 | 25527 ft | 458 kts | 232° |
| 2026-05-05 17:19 | 20.69915 | 110.73652 | 25526 ft | 458 kts | 232° |
| 2026-05-05 17:19 | 20.67867 | 110.71100 | 25525 ft | 458 kts | 232° |
| 2026-05-05 17:19 | 20.65793 | 110.68516 | 25524 ft | 458 kts | 232° |
| 2026-05-05 17:19 | 20.63717 | 110.65936 | 25523 ft | 458 kts | 232° |
| 2026-05-05 17:20 | 20.61638 | 110.63357 | 25522 ft | 458 kts | 232° |
| 2026-05-05 17:20 | 20.59556 | 110.60775 | 25523 ft | 458 kts | 232° |
| 2026-05-05 17:20 | 20.57480 | 110.58193 | 25525 ft | 458 kts | 232° |
| 2026-05-05 17:20 | 20.55403 | 110.55610 | 25526 ft | 458 kts | 232° |
| 2026-05-05 17:21 | 20.53331 | 110.53030 | 25523 ft | 459 kts | 232° |
| 2026-05-05 17:21 | 20.51215 | 110.50482 | 25523 ft | 460 kts | 228° |
| 2026-05-05 17:21 | 20.48779 | 110.48245 | 25524 ft | 464 kts | 219° |
| 2026-05-05 17:22 | 20.43454 | 110.44339 | 25526 ft | 465 kts | 218° |
| 2026-05-05 17:22 | 20.40789 | 110.42390 | 25525 ft | 464 kts | 218° |
| 2026-05-05 17:22 | 20.38127 | 110.40442 | 25525 ft | 464 kts | 218° |
| 2026-05-05 17:22 | 20.35501 | 110.38518 | 25525 ft | 464 kts | 218° |
| 2026-05-05 17:23 | 20.32843 | 110.36568 | 25525 ft | 464 kts | 218° |
| 2026-05-05 17:23 | 20.30184 | 110.34617 | 25524 ft | 464 kts | 218° |
| 2026-05-05 17:23 | 20.27529 | 110.32672 | 25524 ft | 464 kts | 218° |
| 2026-05-05 17:23 | 20.24867 | 110.30723 | 25524 ft | 464 kts | 218° |
| 2026-05-05 17:24 | 20.22206 | 110.28776 | 25517 ft | 464 kts | 217° |
| 2026-05-05 17:24 | 20.19543 | 110.26830 | 25518 ft | 464 kts | 217° |
| 2026-05-05 17:24 | 20.16878 | 110.24885 | 25519 ft | 464 kts | 217° |
| 2026-05-05 17:24 | 20.14213 | 110.22943 | 25519 ft | 464 kts | 217° |
| 2026-05-05 17:25 | 20.11551 | 110.21005 | 25518 ft | 464 kts | 217° |
| 2026-05-05 17:25 | 20.09787 | 110.19723 | 25516 ft | 464 kts | 217° |
| 2026-05-05 17:25 | 20.06226 | 110.17129 | 25518 ft | 464 kts | 217° |
| 2026-05-05 17:25 | 20.03598 | 110.15211 | 25519 ft | 464 kts | 217° |
| 2026-05-05 17:26 | 20.00857 | 110.13392 | 25520 ft | 467 kts | 210° |
| 2026-05-05 17:26 | 19.97914 | 110.11925 | 25525 ft | 468 kts | 207° |
| 2026-05-05 17:26 | 19.94947 | 110.10495 | 25522 ft | 468 kts | 207° |
| 2026-05-05 17:26 | 19.91986 | 110.09068 | 25524 ft | 467 kts | 207° |
| 2026-05-05 17:27 | 19.89029 | 110.07644 | 25529 ft | 467 kts | 207° |
| 2026-05-05 17:27 | 19.86070 | 110.06220 | 25526 ft | 467 kts | 207° |
| 2026-05-05 17:27 | 19.83114 | 110.04795 | 25525 ft | 466 kts | 207° |
| 2026-05-05 17:27 | 19.80157 | 110.03369 | 25528 ft | 466 kts | 207° |
| 2026-05-05 17:28 | 19.77209 | 110.01945 | 25522 ft | 466 kts | 207° |
| 2026-05-05 17:28 | 19.74256 | 110.00519 | 25518 ft | 466 kts | 207° |
| 2026-05-05 17:28 | 19.71308 | 109.99095 | 25524 ft | 466 kts | 207° |
| 2026-05-05 17:28 | 19.68361 | 109.97673 | 25521 ft | 465 kts | 207° |
| 2026-05-05 17:29 | 19.65451 | 109.96271 | 25514 ft | 465 kts | 207° |
| 2026-05-05 17:29 | 19.62503 | 109.94853 | 25508 ft | 466 kts | 206° |
| 2026-05-05 17:29 | 19.59543 | 109.93431 | 25294 ft | 467 kts | 206° |
| 2026-05-05 17:29 | 19.56576 | 109.92006 | 25066 ft | 468 kts | 206° |
| 2026-05-05 17:30 | 19.53605 | 109.90578 | 24846 ft | 469 kts | 206° |
| 2026-05-05 17:30 | 19.50636 | 109.89151 | 24624 ft | 470 kts | 206° |
| 2026-05-05 17:30 | 19.47656 | 109.87721 | 24403 ft | 470 kts | 206° |
| 2026-05-05 17:30 | 19.44673 | 109.86288 | 24190 ft | 471 kts | 206° |
| 2026-05-05 17:31 | 19.41688 | 109.84857 | 23970 ft | 472 kts | 206° |
| 2026-05-05 17:31 | 19.38696 | 109.83425 | 23754 ft | 472 kts | 206° |
| 2026-05-05 17:31 | 19.35698 | 109.81991 | 23536 ft | 473 kts | 206° |
| 2026-05-05 17:31 | 19.32694 | 109.80560 | 23291 ft | 475 kts | 205° |
| 2026-05-05 17:32 | 19.29713 | 109.79143 | 23032 ft | 476 kts | 205° |
| 2026-05-05 17:32 | 19.26691 | 109.77710 | 22776 ft | 476 kts | 205° |
| 2026-05-05 17:32 | 19.23667 | 109.76279 | 22523 ft | 476 kts | 205° |
| 2026-05-05 17:32 | 19.20647 | 109.74838 | 22275 ft | 475 kts | 206° |
| 2026-05-05 17:33 | 19.17648 | 109.73396 | 22029 ft | 473 kts | 206° |
| 2026-05-05 17:33 | 19.14661 | 109.71953 | 21781 ft | 471 kts | 206° |
| 2026-05-05 17:33 | 19.11683 | 109.70512 | 21530 ft | 469 kts | 206° |
| 2026-05-05 17:33 | 19.08717 | 109.69078 | 21298 ft | 468 kts | 206° |
| 2026-05-05 17:34 | 19.05768 | 109.67655 | 21060 ft | 466 kts | 206° |
| 2026-05-05 17:34 | 19.02823 | 109.66236 | 20822 ft | 464 kts | 206° |
| 2026-05-05 17:34 | 18.99885 | 109.64826 | 20580 ft | 463 kts | 206° |
| 2026-05-05 17:34 | 18.96963 | 109.63421 | 20350 ft | 461 kts | 206° |
| 2026-05-05 17:35 | 18.94046 | 109.62015 | 20060 ft | 458 kts | 206° |
| 2026-05-05 17:35 | 18.91192 | 109.60641 | 19141 ft | 457 kts | 206° |
| 2026-05-05 17:35 | 18.88304 | 109.59252 | 18413 ft | 452 kts | 206° |
| 2026-05-05 17:35 | 18.85502 | 109.57909 | 17267 ft | 436 kts | 206° |
| 2026-05-05 17:36 | 18.82795 | 109.56615 | 16548 ft | 423 kts | 206° |
| 2026-05-05 17:36 | 18.80122 | 109.55337 | 15785 ft | 420 kts | 206° |
| 2026-05-05 17:36 | 18.77464 | 109.54066 | 15039 ft | 418 kts | 206° |
| 2026-05-05 17:36 | 18.74822 | 109.52800 | 14312 ft | 416 kts | 206° |
| 2026-05-05 17:37 | 18.72200 | 109.51541 | 13586 ft | 413 kts | 206° |
| 2026-05-05 17:37 | 18.70467 | 109.50709 | 13089 ft | 412 kts | 206° |
| 2026-05-05 17:37 | 18.67010 | 109.49043 | 12179 ft | 405 kts | 206° |
| 2026-05-05 17:37 | 18.64459 | 109.47814 | 11490 ft | 401 kts | 205° |
| 2026-05-05 17:38 | 18.61952 | 109.46613 | 11202 ft | 387 kts | 205° |
| 2026-05-05 17:38 | 18.59560 | 109.45470 | 11083 ft | 369 kts | 205° |
| 2026-05-05 17:38 | 18.57275 | 109.44377 | 10949 ft | 352 kts | 205° |
| 2026-05-05 17:38 | 18.55098 | 109.43335 | 10839 ft | 337 kts | 205° |
| 2026-05-05 17:39 | 18.53000 | 109.42332 | 10720 ft | 324 kts | 205° |
| 2026-05-05 17:39 | 18.51009 | 109.41385 | 10602 ft | 312 kts | 205° |
| 2026-05-05 17:39 | 18.49158 | 109.40277 | 10414 ft | 303 kts | 218° |
| 2026-05-05 17:39 | 18.47636 | 109.38788 | 10310 ft | 297 kts | 231° |
| 2026-05-05 17:40 | 18.46342 | 109.37095 | 10224 ft | 297 kts | 232° |
| 2026-05-05 17:40 | 18.45043 | 109.35402 | 10110 ft | 297 kts | 232° |
| 2026-05-05 17:40 | 18.43741 | 109.33717 | 9945 ft | 297 kts | 232° |
| 2026-05-05 17:40 | 18.42423 | 109.32015 | 9428 ft | 300 kts | 232° |
| 2026-05-05 17:41 | 18.41124 | 109.30336 | 8894 ft | 293 kts | 232° |
| 2026-05-05 17:41 | 18.39848 | 109.28682 | 8253 ft | 289 kts | 233° |
| 2026-05-05 17:41 | 18.38829 | 109.26890 | 7730 ft | 283 kts | 248° |
| 2026-05-05 17:41 | 18.38292 | 109.24919 | 7180 ft | 279 kts | 262° |
| 2026-05-05 17:42 | 18.38036 | 109.22885 | 6659 ft | 283 kts | 262° |
| 2026-05-05 17:42 | 18.37774 | 109.20849 | 6413 ft | 274 kts | 262° |
| 2026-05-05 17:42 | 18.37480 | 109.18955 | 6242 ft | 252 kts | 252° |
| 2026-05-05 17:42 | 18.36586 | 109.17455 | 5933 ft | 238 kts | 219° |
| 2026-05-05 17:43 | 18.35120 | 109.16700 | 5596 ft | 244 kts | 188° |
| 2026-05-05 17:43 | 18.33434 | 109.16783 | 4977 ft | 244 kts | 172° |
| 2026-05-05 17:43 | 18.31774 | 109.17037 | 4587 ft | 235 kts | 168° |
| 2026-05-05 17:43 | 18.30273 | 109.17598 | 4123 ft | 230 kts | 150° |
| 2026-05-05 17:44 | 18.29037 | 109.18648 | 3751 ft | 226 kts | 130° |
| 2026-05-05 17:44 | 18.28223 | 109.20006 | 3545 ft | 215 kts | 113° |
| 2026-05-05 17:44 | 18.27853 | 109.21483 | 3319 ft | 206 kts | 96° |
| 2026-05-05 17:44 | 18.27895 | 109.22963 | 3094 ft | 199 kts | 83° |
| 2026-05-05 17:45 | 18.28082 | 109.24360 | 2850 ft | 188 kts | 83° |
| 2026-05-05 17:45 | 18.28255 | 109.25684 | 2628 ft | 178 kts | 83° |
| 2026-05-05 17:45 | 18.28420 | 109.26945 | 2425 ft | 169 kts | 83° |
| 2026-05-05 17:45 | 18.28524 | 109.27730 | 2267 ft | 158 kts | 83° |
| 2026-05-05 17:46 | 18.28667 | 109.28823 | 2065 ft | 145 kts | 84° |
| 2026-05-05 17:46 | 18.28847 | 109.30197 | 1825 ft | 140 kts | 83° |
| 2026-05-05 17:46 | 18.28934 | 109.30860 | 1706 ft | 137 kts | 83° |
| 2026-05-05 17:46 | 18.29107 | 109.32180 | 1458 ft | 137 kts | 83° |
| 2026-05-05 17:47 | 18.29195 | 109.32853 | 1355 ft | 137 kts | 83° |
| 2026-05-05 17:47 | 18.29325 | 109.33841 | 1169 ft | 136 kts | 83° |
| 2026-05-05 17:47 | 18.29495 | 109.35138 | 943 ft | 135 kts | 82° |
| 2026-05-05 17:47 | 18.29622 | 109.36113 | 774 ft | 135 kts | 82° |
| 2026-05-05 17:48 | 18.29708 | 109.36761 | 654 ft | 135 kts | 80° |
| 2026-05-05 17:48 | 18.29829 | 109.37740 | 463 ft | 135 kts | 82° |
| 2026-05-05 17:48 | 18.29964 | 109.38714 | 292 ft | 135 kts | 82° |
| 2026-05-05 17:48 | 18.30092 | 109.39689 | 112 ft | 134 kts | 82° |
| 2026-05-05 17:49 | 18.30207 | 109.40582 | 78 ft | 102 kts | 82° |
| 2026-05-05 17:49 | 18.30280 | 109.41141 | 84 ft | 52 kts | 82° |
| 2026-05-05 17:49 | 18.30318 | 109.41313 | 91 ft | 11 kts | 28° |
| 2026-05-05 17:49 | 18.30386 | 109.41313 | 87 ft | 9 kts | 352° |
| 2026-05-05 17:50 | 18.30449 | 109.41303 | 87 ft | 9 kts | 350° |
| 2026-05-05 17:50 | 18.30471 | 109.41255 | 89 ft | 8 kts | 261° |
| 2026-05-05 17:50 | 18.30462 | 109.41196 | 87 ft | 8 kts | 261° |
| 2026-05-05 17:50 | 18.30453 | 109.41137 | 84 ft | 8 kts | 262° |
| 2026-05-05 17:51 | 18.30442 | 109.41053 | 85 ft | 13 kts | 262° |
| 2026-05-05 17:51 | 18.30430 | 109.40960 | 84 ft | 13 kts | 262° |
| 2026-05-05 17:51 | 18.30419 | 109.40873 | 82 ft | 12 kts | 266° |
| 2026-05-05 17:51 | 18.30468 | 109.40823 | 83 ft | 10 kts | 351° |
| 2026-05-05 17:52 | 18.30545 | 109.40811 | 84 ft | 16 kts | 352° |
| 2026-05-05 17:52 | 18.30647 | 109.40797 | 83 ft | 11 kts | 352° |
| 2026-05-05 17:52 | 18.30709 | 109.40773 | 84 ft | 9 kts | 310° |
| 2026-05-05 17:52 | 18.30727 | 109.40712 | 81 ft | 8 kts | 305° |
| 2026-05-05 17:53 | 18.30778 | 109.40702 | 85 ft | 7 kts | 354° |
| 2026-05-05 17:53 | 18.30809 | 109.40697 | 82 ft | 0 kts | 351° |